Time;durP1;ratioP1;P1;durP2;ratioP2;P2;SDS_P1;SDS_P2;PMS_P1;PMS_P2;Temp;Humidity;BMP_temperature;BMP_pressure;BME280_temperature;BME280_humidity;BME280_pressure;Samples;Min_cycle;Max_cycle;Signal;HPM_P1;HPM_P2
2021/04/06 00:01:47;;;;;;;16.02;3.08;;;3.60;99.90;;;;;;4159783;28;20060;-67
2021/04/06 00:03:49;;;;;;;19.92;3.38;;;3.60;99.90;;;;;;4159112;28;20041;-67
2021/04/06 00:05:55;;;;;;;19.48;3.50;;;3.60;99.90;;;;;;4154065;28;20045;-67
2021/04/06 00:07:58;;;;;;;14.10;3.08;;;3.70;99.90;;;;;;4160055;28;20485;-67
2021/04/06 00:10:05;;;;;;;14.50;3.40;;;3.60;99.90;;;;;;4164158;28;20644;-67
2021/04/06 00:12:07;;;;;;;16.05;2.67;;;3.70;99.90;;;;;;4160737;28;20729;-67
2021/04/06 00:14:10;;;;;;;14.20;3.08;;;3.70;99.90;;;;;;4180599;28;20527;-67
2021/04/06 00:16:11;;;;;;;;;;;3.70;99.90;;;;;;4167086;28;20076;-67
2021/04/06 00:18:14;;;;;;;17.63;2.75;;;3.70;99.90;;;;;;4160219;28;19917;-67
2021/04/06 00:20:17;;;;;;;18.38;3.30;;;3.70;99.90;;;;;;4143745;28;20121;-67
2021/04/06 00:22:19;;;;;;;14.55;2.67;;;3.80;99.90;;;;;;4159737;28;20122;-67
2021/04/06 00:24:23;;;;;;;15.13;2.97;;;3.80;99.90;;;;;;4163863;28;20063;-67
2021/04/06 00:26:24;;;;;;;18.88;4.00;;;3.70;99.90;;;;;;4161665;28;20041;-67
2021/04/06 00:28:35;;;;;;;20.58;3.00;;;3.70;99.90;;;;;;4170010;28;20043;-67
2021/04/06 00:30:37;;;;;;;17.95;4.03;;;3.70;99.90;;;;;;4166682;28;20101;-67
2021/04/06 00:32:38;;;;;;;11.40;2.78;;;3.70;99.90;;;;;;4158502;28;20476;-67
2021/04/06 00:34:40;;;;;;;17.38;3.90;;;3.70;99.90;;;;;;4159368;28;20528;-67
2021/04/06 00:36:42;;;;;;;17.50;3.42;;;3.70;99.90;;;;;;4181775;28;20391;-67
2021/04/06 00:38:43;;;;;;;14.48;3.08;;;3.70;99.90;;;;;;4159795;28;20140;-67
2021/04/06 00:40:50;;;;;;;19.90;3.35;;;3.70;99.90;;;;;;4166178;28;20030;-67
2021/04/06 00:43:03;;;;;;;16.88;3.10;;;3.70;99.90;;;;;;4164856;28;20041;-67
2021/04/06 00:45:11;;;;;;;17.60;3.83;;;3.70;99.90;;;;;;4160819;28;20045;-67
2021/04/06 00:47:14;;;;;;;15.82;3.33;;;3.70;99.90;;;;;;4161512;28;20513;-67
2021/04/06 00:49:16;;;;;;;18.45;3.38;;;3.70;99.90;;;;;;4158341;28;20127;-67
2021/04/06 00:51:19;;;;;;;18.90;3.67;;;3.70;99.90;;;;;;4163614;28;20037;-67
2021/04/06 00:53:22;;;;;;;16.00;2.67;;;3.70;99.90;;;;;;4161854;28;20048;-67
2021/04/06 00:55:23;;;;;;;16.63;3.90;;;3.80;99.90;;;;;;4166501;28;20167;-67
2021/04/06 00:57:32;;;;;;;14.55;2.92;;;3.80;99.90;;;;;;4176519;28;20083;-67
2021/04/06 00:59:33;;;;;;;23.80;4.07;;;3.70;99.90;;;;;;4176253;28;20041;-67
2021/04/06 01:01:43;;;;;;;12.65;2.13;;;3.70;99.90;;;;;;4167083;28;20033;-67
2021/04/06 01:03:43;;;;;;;10.65;2.08;;;3.60;99.90;;;;;;4159089;28;20148;-67
2021/04/06 01:06:00;;;;;;;16.15;2.90;;;3.60;99.90;;;;;;4159091;28;20045;-67
2021/04/06 01:08:04;;;;;;;12.30;1.75;;;3.50;99.90;;;;;;4185452;28;20060;-67
2021/04/06 01:10:07;;;;;;;15.27;2.67;;;3.40;99.90;;;;;;4165568;28;20042;-67
2021/04/06 01:12:10;;;;;;;14.00;2.53;;;3.30;99.90;;;;;;4190577;28;20392;-67
2021/04/06 01:14:17;;;;;;;11.35;3.05;;;3.20;99.90;;;;;;4158803;28;20060;-67
2021/04/06 01:16:18;;;;;;;14.55;2.58;;;3.20;99.90;;;;;;4157881;28;20583;-67
2021/04/06 01:18:20;;;;;;;11.82;2.20;;;3.10;99.90;;;;;;4175631;28;20045;-67
2021/04/06 01:20:24;;;;;;;10.75;2.08;;;3.20;99.90;;;;;;4164870;28;20381;-67
2021/04/06 01:22:27;;;;;;;14.07;2.35;;;3.10;99.90;;;;;;4167478;28;20041;-67
2021/04/06 01:24:29;;;;;;;10.43;1.80;;;3.00;99.90;;;;;;4162133;28;20106;-67
2021/04/06 01:26:32;;;;;;;10.30;1.85;;;3.00;99.90;;;;;;4165224;28;20040;-67
2021/04/06 01:28:33;;;;;;;7.30;2.03;;;2.90;99.90;;;;;;4162809;28;20061;-67
2021/04/06 01:30:45;;;;;;;10.50;1.80;;;2.90;99.90;;;;;;4168244;28;20037;-67
2021/04/06 01:32:46;;;;;;;;;;;2.90;99.90;;;;;;4162041;28;20117;-67
2021/04/06 01:34:48;;;;;;;8.60;1.55;;;2.90;99.90;;;;;;4160352;28;19940;-67
2021/04/06 01:36:53;;;;;;;10.05;1.80;;;2.90;99.90;;;;;;4169437;28;22987;-67
2021/04/06 01:38:54;;;;;;;11.18;1.92;;;2.90;99.90;;;;;;4162715;28;20052;-67
2021/04/06 01:40:57;;;;;;;8.80;1.67;;;2.90;99.90;;;;;;4162846;28;20033;-67
2021/04/06 01:42:59;;;;;;;13.50;2.67;;;2.90;99.90;;;;;;4164763;28;20052;-67
2021/04/06 01:45:03;;;;;;;8.80;2.03;;;2.90;99.90;;;;;;4163399;28;20124;-67
2021/04/06 01:47:05;;;;;;;11.27;2.78;;;2.90;99.90;;;;;;4163929;28;20041;-67
2021/04/06 01:49:07;;;;;;;20.48;3.00;;;2.90;99.90;;;;;;4157058;28;20072;-67
2021/04/06 01:51:08;;;;;;;13.52;2.47;;;2.90;99.90;;;;;;4164634;28;20033;-67
2021/04/06 01:53:10;;;;;;;12.73;2.08;;;2.90;99.90;;;;;;4166625;28;20164;-67
2021/04/06 01:55:18;;;;;;;12.57;2.53;;;3.00;99.90;;;;;;4159505;28;20042;-67
2021/04/06 01:57:35;;;;;;;15.18;2.60;;;3.00;99.90;;;;;;4175141;28;20033;-67
2021/04/06 01:59:42;;;;;;;11.18;1.88;;;3.00;99.90;;;;;;4159226;28;20505;-67
2021/04/06 02:01:49;;;;;;;13.27;2.28;;;3.10;99.90;;;;;;4163181;28;20535;-67
2021/04/06 02:05:55;;;;;;;11.77;2.38;;;3.20;99.90;;;;;;4162080;28;20048;-67
2021/04/06 02:08:00;;;;;;;10.48;2.08;;;3.10;99.90;;;;;;4162292;28;20037;-67
2021/04/06 02:10:01;;;;;;;10.80;2.38;;;3.10;99.90;;;;;;4160281;28;20029;-67
2021/04/06 02:12:01;;;;;;;13.43;2.20;;;3.20;99.90;;;;;;4164807;28;20040;-67
2021/04/06 02:14:11;;;;;;;16.50;2.58;;;3.20;99.90;;;;;;4163171;28;20041;-67
2021/04/06 02:16:12;;;;;;;14.20;2.40;;;3.20;99.90;;;;;;4159044;28;20153;-67
2021/04/06 02:18:21;;;;;;;17.83;2.88;;;3.20;99.90;;;;;;4161326;28;20533;-67
2021/04/06 02:20:24;;;;;;;12.35;2.83;;;3.20;99.90;;;;;;4158392;28;20497;-67
2021/04/06 02:22:24;;;;;;;15.68;3.30;;;3.20;99.90;;;;;;4162061;28;20099;-67
2021/04/06 02:24:25;;;;;;;12.63;3.17;;;3.20;99.90;;;;;;4161458;28;20037;-67
2021/04/06 02:26:25;;;;;;;13.45;2.53;;;3.10;99.90;;;;;;4162395;28;20037;-67
2021/04/06 02:28:26;;;;;;;20.65;3.13;;;3.20;99.90;;;;;;4159318;28;20052;-67
2021/04/06 02:30:30;;;;;;;8.98;2.20;;;3.10;99.90;;;;;;4161112;28;20083;-67
2021/04/06 02:32:33;;;;;;;13.30;2.53;;;3.20;99.90;;;;;;4161527;28;20091;-67
2021/04/06 02:34:38;;;;;;;12.75;3.15;;;3.20;99.90;;;;;;4161502;28;20029;-67
2021/04/06 02:36:38;;;;;;;12.82;2.90;;;3.20;99.90;;;;;;4162742;28;20053;-67
2021/04/06 02:38:42;;;;;;;16.30;2.95;;;3.30;99.90;;;;;;4181556;28;20070;-67
2021/04/06 02:40:43;;;;;;;16.08;2.78;;;3.20;99.90;;;;;;4160731;28;20062;-67
2021/04/06 02:42:46;;;;;;;10.45;2.30;;;3.30;99.90;;;;;;4164149;28;20124;-67
2021/04/06 02:44:46;;;;;;;;;;;3.30;99.90;;;;;;4162466;28;20111;-67
2021/04/06 02:46:51;;;;;;;18.85;2.33;;;3.30;99.90;;;;;;4158897;28;20308;-67
2021/04/06 02:48:55;;;;;;;11.27;2.63;;;3.30;99.90;;;;;;4182039;28;20033;-67
2021/04/06 02:50:56;;;;;;;9.50;2.08;;;3.30;99.90;;;;;;4156425;28;20041;-67
2021/04/06 02:52:57;;;;;;;10.70;2.10;;;3.40;99.90;;;;;;4161538;28;20669;-67
2021/04/06 02:54:58;;;;;;;22.45;2.63;;;3.40;99.90;;;;;;4162569;28;20133;-67
2021/04/06 02:56:58;;;;;;;14.27;3.20;;;3.40;99.90;;;;;;4159181;28;20505;-67
2021/04/06 02:59:12;;;;;;;11.48;1.70;;;3.40;99.90;;;;;;4161502;28;20030;-67
2021/04/06 03:01:16;;;;;;;10.27;1.60;;;3.40;99.90;;;;;;4159651;28;20056;-67
2021/04/06 03:03:25;;;;;;;15.57;2.47;;;3.40;99.90;;;;;;4163371;28;20048;-67
2021/04/06 03:05:36;;;;;;;10.60;1.80;;;3.40;99.90;;;;;;4158902;28;20041;-67
2021/04/06 03:07:46;;;;;;;6.47;1.80;;;3.40;99.90;;;;;;4162416;28;20397;-67
2021/04/06 03:09:59;;;;;;;8.63;2.33;;;3.40;99.90;;;;;;4161746;28;20033;-67
2021/04/06 03:12:00;;;;;;;12.07;2.28;;;3.40;99.90;;;;;;4161412;28;20052;-67
2021/04/06 03:14:01;;;;;;;9.85;2.00;;;3.40;99.90;;;;;;4162278;28;20139;-67
2021/04/06 03:16:04;;;;;;;9.05;2.17;;;3.40;99.90;;;;;;4162080;28;20120;-67
2021/04/06 03:18:06;;;;;;;13.32;2.08;;;3.40;99.90;;;;;;4162268;28;20075;-67
2021/04/06 03:20:12;;;;;;;9.77;1.83;;;3.40;99.90;;;;;;4159414;28;20029;-67
2021/04/06 03:22:13;;;;;;;9.75;2.45;;;3.40;99.90;;;;;;4163462;28;20104;-67
2021/04/06 03:24:17;;;;;;;13.65;2.30;;;3.40;99.90;;;;;;4156295;28;20033;-67
2021/04/06 03:26:17;;;;;;;8.18;2.08;;;3.40;99.90;;;;;;4157888;28;20040;-67
2021/04/06 03:28:18;;;;;;;15.00;2.20;;;3.30;99.90;;;;;;4163928;28;20451;-67
2021/04/06 03:30:34;;;;;;;10.55;2.17;;;3.30;99.90;;;;;;4160434;28;20029;-67
2021/04/06 03:32:35;;;;;;;10.63;2.47;;;3.30;99.90;;;;;;4160168;28;20030;-67
2021/04/06 03:34:39;;;;;;;8.15;1.60;;;3.30;99.90;;;;;;4160613;28;20534;-67
2021/04/06 03:36:41;;;;;;;10.73;2.28;;;3.30;99.90;;;;;;4157707;28;20068;-67
2021/04/06 03:38:42;;;;;;;10.20;2.58;;;3.30;99.90;;;;;;4159971;28;20083;-67
2021/04/06 03:40:43;;;;;;;12.13;2.40;;;3.20;99.90;;;;;;4158925;28;20042;-67
2021/04/06 03:42:44;;;;;;;9.13;2.17;;;3.20;99.90;;;;;;4161543;28;20044;-67
2021/04/06 03:44:44;;;;;;;11.52;2.63;;;3.20;99.90;;;;;;4162157;28;20057;-67
2021/04/06 03:46:55;;;;;;;12.82;2.58;;;3.20;99.90;;;;;;4157345;28;20040;-67
2021/04/06 03:49:18;;;;;;;9.30;2.55;;;3.20;99.90;;;;;;4190945;28;20044;-67
2021/04/06 03:51:29;;;;;;;15.17;2.87;;;3.20;99.90;;;;;;4174256;28;20040;-67
2021/04/06 03:53:38;;;;;;;17.50;3.17;;;3.20;99.90;;;;;;4160464;28;20155;-67
2021/04/06 03:55:42;;;;;;;13.73;3.40;;;3.20;99.90;;;;;;4161334;28;20045;-67
2021/04/06 03:59:43;;;;;;;12.13;2.70;;;3.20;99.90;;;;;;4162336;28;20386;-67
2021/04/06 04:01:44;;;;;;;13.10;2.25;;;3.20;99.90;;;;;;4159598;28;20033;-67
2021/04/06 04:03:44;;;;;;;15.63;2.42;;;3.20;99.90;;;;;;4162274;28;20049;-68
2021/04/06 04:05:48;;;;;;;11.02;2.55;;;3.20;99.90;;;;;;4160458;28;20176;-67
2021/04/06 04:07:49;;;;;;;13.48;2.45;;;3.20;99.90;;;;;;4161190;28;20596;-67
2021/04/06 04:09:50;;;;;;;16.70;3.20;;;3.20;99.90;;;;;;4163134;28;20049;-67
2021/04/06 04:11:50;;;;;;;21.17;3.60;;;3.20;99.90;;;;;;4158783;28;20044;-67
2021/04/06 04:13:51;;;;;;;13.07;2.90;;;3.20;99.90;;;;;;4161141;28;20091;-67
2021/04/06 04:15:51;;;;;;;14.55;2.38;;;3.20;99.90;;;;;;4160820;28;20045;-67
2021/04/06 04:17:52;;;;;;;11.13;2.38;;;3.20;99.90;;;;;;4160648;28;20042;-67
2021/04/06 04:19:54;;;;;;;11.52;2.55;;;3.20;99.90;;;;;;4161289;28;20739;-67
2021/04/06 04:21:55;;;;;;;11.45;2.38;;;3.20;99.90;;;;;;4159460;28;20065;-67
2021/04/06 04:23:56;;;;;;;28.15;4.32;;;3.20;99.90;;;;;;4175058;28;20033;-67
2021/04/06 04:25:56;;;;;;;16.58;3.63;;;3.20;99.90;;;;;;4178851;28;20123;-67
2021/04/06 04:27:57;;;;;;;14.02;2.88;;;3.20;99.90;;;;;;4160748;28;20100;-67
2021/04/06 04:29:58;;;;;;;21.27;3.47;;;3.30;99.90;;;;;;4163659;28;20088;-67
2021/04/06 04:31:58;;;;;;;11.00;2.47;;;3.20;99.90;;;;;;4159815;28;20389;-67
2021/04/06 04:33:59;;;;;;;15.77;3.03;;;3.20;99.90;;;;;;4161244;28;20433;-67
2021/04/06 04:35:59;;;;;;;15.18;2.55;;;3.20;99.90;;;;;;4164914;28;20037;-67
2021/04/06 04:38:00;;;;;;;13.00;2.72;;;3.30;99.90;;;;;;4159904;28;20117;-67
2021/04/06 04:40:02;;;;;;;17.20;3.28;;;3.30;99.90;;;;;;4186101;28;20037;-67
2021/04/06 04:42:03;;;;;;;32.70;5.43;;;3.20;99.90;;;;;;4159732;28;20064;-67
2021/04/06 04:44:04;;;;;;;16.80;3.42;;;3.20;99.90;;;;;;4162987;28;20256;-67
2021/04/06 04:46:04;;;;;;;13.57;2.55;;;3.30;99.90;;;;;;4171960;28;20033;-67
2021/04/06 04:48:05;;;;;;;16.38;2.92;;;3.20;99.90;;;;;;4197839;28;20024;-67
2021/04/06 04:50:06;;;;;;;16.15;3.05;;;3.30;99.90;;;;;;4168288;28;20034;-67
2021/04/06 04:52:07;;;;;;;21.95;3.15;;;3.30;99.90;;;;;;4175750;28;20082;-67
2021/04/06 04:54:08;;;;;;;19.17;3.85;;;3.40;99.90;;;;;;4161799;28;20025;-67
2021/04/06 04:56:08;;;;;;;16.80;2.72;;;3.30;99.90;;;;;;4165620;28;20033;-67
2021/04/06 04:58:10;;;;;;;18.05;3.75;;;3.40;99.90;;;;;;4162611;28;20653;-67
2021/04/06 05:00:12;;;;;;;14.48;2.53;;;3.30;99.90;;;;;;4168009;28;20031;-67
2021/04/06 05:02:13;;;;;;;19.95;2.70;;;3.30;99.90;;;;;;4158570;28;20041;-67
2021/04/06 05:04:14;;;;;;;12.52;2.85;;;3.30;99.90;;;;;;4161320;28;20029;-67
2021/04/06 05:06:14;;;;;;;13.38;2.63;;;3.20;99.90;;;;;;4160818;28;20130;-67
2021/04/06 05:08:15;;;;;;;9.65;2.05;;;3.30;99.90;;;;;;4174916;28;20120;-67
2021/04/06 05:10:16;;;;;;;11.45;2.58;;;3.20;99.90;;;;;;4170137;28;20500;-67
2021/04/06 05:12:17;;;;;;;15.60;3.15;;;3.20;99.90;;;;;;4166297;28;20056;-67
2021/04/06 05:14:18;;;;;;;13.02;2.92;;;3.20;99.90;;;;;;4178160;28;20032;-67
2021/04/06 05:16:19;;;;;;;14.02;2.97;;;3.20;99.90;;;;;;4158184;28;20382;-67
2021/04/06 05:18:20;;;;;;;10.35;2.08;;;3.30;99.90;;;;;;4162070;28;20067;-67
2021/04/06 05:20:20;;;;;;;11.55;2.45;;;3.20;99.90;;;;;;4168058;28;20029;-67
2021/04/06 05:22:21;;;;;;;14.70;3.15;;;3.20;99.90;;;;;;4159324;28;20037;-67
2021/04/06 05:24:22;;;;;;;14.65;2.63;;;3.20;99.90;;;;;;4167256;28;20547;-67
2021/04/06 05:26:22;;;;;;;14.02;2.58;;;3.10;99.90;;;;;;4178969;28;20102;-67
2021/04/06 05:28:23;;;;;;;25.00;3.25;;;3.20;99.90;;;;;;4162113;28;20572;-67
2021/04/06 05:30:24;;;;;;;11.35;2.78;;;3.20;99.90;;;;;;4158133;28;20137;-67
2021/04/06 05:32:25;;;;;;;7.75;2.08;;;3.10;99.90;;;;;;4158847;28;21504;-67
2021/04/06 05:34:25;;;;;;;15.23;1.92;;;3.10;99.90;;;;;;4161305;28;20048;-67
2021/04/06 05:36:26;;;;;;;11.05;2.00;;;3.10;99.90;;;;;;4130605;28;20048;-67
2021/04/06 05:38:27;;;;;;;9.60;1.90;;;3.10;99.90;;;;;;4167945;28;20520;-67
2021/04/06 05:40:27;;;;;;;10.98;2.22;;;3.10;99.90;;;;;;4168205;28;20596;-67
2021/04/06 05:42:28;;;;;;;6.53;1.80;;;3.10;99.90;;;;;;4167018;28;20484;-67
2021/04/06 05:44:30;;;;;;;5.10;1.40;;;3.00;99.90;;;;;;4183380;28;20040;-68
2021/04/06 05:46:34;;;;;;;9.25;1.58;;;3.10;99.90;;;;;;4164433;28;20045;-67
2021/04/06 05:48:36;;;;;;;6.28;1.63;;;3.10;99.90;;;;;;4158604;28;20037;-67
2021/04/06 05:50:36;;;;;;;3.28;1.17;;;3.10;99.90;;;;;;4158416;28;20046;-67
2021/04/06 05:52:37;;;;;;;10.10;1.50;;;3.10;99.90;;;;;;4179869;28;20681;-67
2021/04/06 05:54:38;;;;;;;8.55;1.88;;;3.10;99.90;;;;;;4158400;28;20096;-67
2021/04/06 05:56:39;;;;;;;4.78;1.58;;;3.00;99.90;;;;;;4176802;28;20059;-68
2021/04/06 05:58:40;;;;;;;5.22;1.58;;;3.10;99.90;;;;;;4171202;28;20094;-67
2021/04/06 06:00:41;;;;;;;4.38;1.33;;;3.10;99.90;;;;;;4159219;28;20061;-67
2021/04/06 06:02:41;;;;;;;4.40;1.58;;;3.10;99.90;;;;;;4159257;28;20049;-67
2021/04/06 06:04:42;;;;;;;6.82;1.55;;;3.10;99.90;;;;;;4164437;28;20036;-67
2021/04/06 06:06:43;;;;;;;10.38;1.40;;;3.10;99.90;;;;;;4166934;28;20057;-67
2021/04/06 06:08:50;;;;;;;6.78;1.52;;;3.10;99.90;;;;;;4167102;28;20049;-67
2021/04/06 06:11:03;;;;;;;5.28;1.80;;;3.10;99.90;;;;;;4167667;28;20103;-67
2021/04/06 06:13:24;;;;;;;6.22;1.70;;;3.20;99.90;;;;;;4164513;28;20378;-68
2021/04/06 06:15:24;;;;;;;6.13;2.15;;;3.20;99.90;;;;;;4161283;28;20038;-67
2021/04/06 06:17:27;;;;;;;10.48;2.03;;;3.10;99.90;;;;;;4165072;28;20046;-67
2021/04/06 06:19:33;;;;;;;8.75;2.22;;;3.10;99.90;;;;;;4164430;28;20049;-69
2021/04/06 06:21:52;;;;;;;7.95;2.28;;;3.10;99.90;;;;;;4164588;28;20543;-69
2021/04/06 06:23:53;;;;;;;16.75;3.22;;;3.10;99.90;;;;;;4187817;28;20493;-69
2021/04/06 06:26:02;;;;;;;9.20;2.67;;;3.10;99.90;;;;;;4168763;28;20030;-69
2021/04/06 06:28:10;;;;;;;10.93;2.58;;;3.10;99.90;;;;;;4192128;28;20448;-69
2021/04/06 06:30:36;;;;;;;14.93;2.53;;;3.10;99.90;;;;;;4172339;28;20025;-69
2021/04/06 06:32:37;;;;;;;17.63;2.47;;;3.00;99.90;;;;;;4183699;28;20039;-69
2021/04/06 06:34:38;;;;;;;6.28;1.58;;;3.10;99.90;;;;;;4167371;28;20120;-69
2021/04/06 06:36:39;;;;;;;8.80;2.03;;;3.20;99.90;;;;;;4170362;28;20113;-69
2021/04/06 06:38:42;;;;;;;12.25;3.33;;;3.20;99.90;;;;;;4177300;28;20670;-69
2021/04/06 06:40:43;;;;;;;11.75;3.50;;;3.20;99.90;;;;;;4158892;28;20160;-69
2021/04/06 06:42:44;;;;;;;17.58;3.30;;;3.20;99.90;;;;;;4160383;28;20069;-69
2021/04/06 06:44:45;;;;;;;12.07;2.75;;;3.30;99.90;;;;;;4169928;28;20679;-69
2021/04/06 06:46:46;;;;;;;15.10;2.88;;;3.30;99.90;;;;;;4185475;28;20070;-69
2021/04/06 06:49:01;;;;;;;18.02;2.65;;;3.30;99.90;;;;;;4172745;28;20033;-71
2021/04/06 06:51:03;;;;;;;22.02;2.90;;;3.40;99.90;;;;;;4192876;28;20160;-68
2021/04/06 06:53:04;;;;;;;19.17;4.37;;;3.30;99.90;;;;;;4161779;28;20045;-67
2021/04/06 06:55:19;;;;;;;9.80;3.00;;;3.40;99.90;;;;;;4160076;28;20036;-67
2021/04/06 06:57:35;;;;;;;12.80;2.63;;;3.50;99.90;;;;;;4164509;28;20174;-68
2021/04/06 06:59:43;;;;;;;9.60;2.75;;;3.50;99.90;;;;;;4163806;28;20052;-68
2021/04/06 07:01:43;;;;;;;11.98;3.17;;;3.50;99.90;;;;;;4179349;28;20042;-67
2021/04/06 07:04:10;;;;;;;11.55;2.53;;;3.60;99.90;;;;;;4161467;28;20045;-67
2021/04/06 07:06:20;;;;;;;11.52;2.38;;;3.60;99.90;;;;;;4166945;28;20028;-67
2021/04/06 07:08:33;;;;;;;14.15;2.15;;;3.70;99.90;;;;;;4166869;28;20038;-67
2021/04/06 07:10:42;;;;;;;11.95;2.60;;;3.70;99.90;;;;;;4163023;28;20055;-67
2021/04/06 07:12:45;;;;;;;16.05;2.70;;;3.80;99.90;;;;;;4160618;28;20034;-67
2021/04/06 07:14:47;;;;;;;;;;;3.70;99.90;;;;;;4161035;28;20504;-67
2021/04/06 07:16:48;;;;;;;6.35;1.45;;;3.80;99.90;;;;;;4163203;28;19914;-67
2021/04/06 07:18:50;;;;;;;5.80;2.13;;;3.80;99.90;;;;;;4157369;28;20042;-67
2021/04/06 07:20:56;;;;;;;12.03;2.73;;;3.90;99.90;;;;;;4159671;28;20647;-67
2021/04/06 07:23:03;;;;;;;13.02;3.15;;;3.90;99.90;;;;;;4155270;28;20476;-67
2021/04/06 07:25:04;;;;;;;9.60;2.13;;;3.90;99.90;;;;;;4185994;28;20071;-67
2021/04/06 07:27:10;;;;;;;10.30;2.70;;;4.00;99.90;;;;;;4157467;28;20514;-67
2021/04/06 07:29:12;;;;;;;11.52;2.55;;;4.10;99.90;;;;;;4157220;28;20034;-67
2021/04/06 07:31:15;;;;;;;9.75;2.40;;;4.10;99.90;;;;;;4158300;28;20021;-67
2021/04/06 07:33:16;;;;;;;8.35;2.15;;;4.10;99.90;;;;;;4174977;28;20048;-68
2021/04/06 07:35:17;;;;;;;13.10;2.53;;;4.20;99.90;;;;;;4162963;28;20033;-67
2021/04/06 07:37:17;;;;;;;7.25;2.00;;;4.40;99.90;;;;;;4156354;28;20124;-68
2021/04/06 07:39:18;;;;;;;11.05;2.67;;;4.40;99.90;;;;;;4160948;28;20045;-68
2021/04/06 07:41:22;;;;;;;10.52;3.00;;;4.40;99.90;;;;;;4162027;28;20069;-67
2021/04/06 07:43:23;;;;;;;11.25;2.67;;;4.50;99.90;;;;;;4162251;28;20099;-67
2021/04/06 07:45:24;;;;;;;8.32;2.03;;;4.50;99.90;;;;;;4165013;28;20041;-67
2021/04/06 07:47:36;;;;;;;13.95;2.90;;;4.50;99.90;;;;;;4163668;28;20052;-67
2021/04/06 07:49:38;;;;;;;9.43;2.25;;;4.60;99.90;;;;;;4164605;28;20037;-67
2021/04/06 07:51:47;;;;;;;10.52;2.30;;;4.70;99.90;;;;;;4144658;28;20163;-67
2021/04/06 07:54:04;;;;;;;12.55;2.33;;;4.80;99.90;;;;;;4202860;28;20133;-67
2021/04/06 07:56:05;;;;;;;9.43;1.88;;;4.90;99.90;;;;;;4160576;28;20020;-67
2021/04/06 07:58:05;;;;;;;7.72;2.00;;;4.90;99.90;;;;;;4160798;28;20111;-66
2021/04/06 08:00:06;;;;;;;9.30;2.20;;;5.00;99.90;;;;;;4161791;28;20042;-66
2021/04/06 08:02:07;;;;;;;13.35;2.30;;;5.20;99.90;;;;;;4181747;28;20595;-66
2021/04/06 08:04:08;;;;;;;10.93;2.20;;;5.30;99.90;;;;;;4157086;28;20034;-66
2021/04/06 08:06:26;;;;;;;6.28;1.80;;;5.30;99.90;;;;;;4159610;28;20120;-66
2021/04/06 08:08:36;;;;;;;7.60;1.80;;;5.30;99.90;;;;;;4159492;28;20037;-66
2021/04/06 08:10:37;;;;;;;8.55;1.90;;;5.30;99.90;;;;;;4158183;28;20556;-66
2021/04/06 08:12:38;;;;;;;12.63;2.25;;;5.20;99.90;;;;;;4159454;28;20032;-66
2021/04/06 08:14:50;;;;;;;8.15;1.92;;;5.20;99.90;;;;;;4159025;28;20038;-66
2021/04/06 08:17:37;;;;;;;5.85;1.85;;;5.20;99.90;;;;;;4159906;28;20104;-66
2021/04/06 08:19:48;;;;;;;10.27;1.90;;;5.30;99.90;;;;;;4155495;28;20051;-66
2021/04/06 08:22:21;;;;;;;7.72;1.65;;;5.40;99.90;;;;;;4158868;28;20021;-66
2021/04/06 08:24:22;;;;;;;8.23;2.03;;;5.40;99.90;;;;;;4142390;28;20025;-66
2021/04/06 08:26:30;;;;;;;10.05;2.00;;;5.50;99.90;;;;;;4184812;28;20030;-67
2021/04/06 08:28:37;;;;;;;10.15;1.80;;;5.60;99.90;;;;;;4166020;28;20033;-66
2021/04/06 08:30:39;;;;;;;8.65;2.00;;;5.70;99.90;;;;;;4164954;28;20521;-66
2021/04/06 08:32:39;;;;;;;6.07;1.83;;;5.80;99.90;;;;;;4159768;28;20112;-66
2021/04/06 08:34:53;;;;;;;5.38;1.55;;;5.90;99.90;;;;;;4161345;28;20587;-66
2021/04/06 08:37:09;;;;;;;7.80;1.50;;;6.00;99.90;;;;;;4161532;28;20033;-66
2021/04/06 08:39:10;;;;;;;9.77;2.22;;;6.00;99.90;;;;;;4161492;28;20045;-66
2021/04/06 08:41:14;;;;;;;7.25;1.80;;;6.00;99.90;;;;;;4167800;28;20032;-66
2021/04/06 08:43:18;;;;;;;7.80;1.85;;;5.90;99.90;;;;;;4165477;28;20045;-66
2021/04/06 08:45:25;;;;;;;6.32;1.55;;;6.00;99.90;;;;;;4169027;28;20140;-66
2021/04/06 08:47:40;;;;;;;10.10;2.00;;;5.90;99.90;;;;;;4166218;28;20187;-67
2021/04/06 08:49:41;;;;;;;7.43;1.75;;;5.80;99.90;;;;;;4159206;28;20525;-66
2021/04/06 08:51:45;;;;;;;4.20;1.40;;;5.80;99.90;;;;;;4177290;28;20039;-66
2021/04/06 08:53:48;;;;;;;5.05;1.23;;;5.80;99.90;;;;;;4164321;28;20045;-66
2021/04/06 08:55:49;;;;;;;;;;;5.90;99.90;;;;;;4159879;28;20493;-66
2021/04/06 08:57:57;;;;;;;6.78;1.52;;;5.90;99.90;;;;;;4195296;28;19908;-66
2021/04/06 09:00:06;;;;;;;4.30;1.60;;;5.80;99.90;;;;;;4165416;28;20374;-66
2021/04/06 09:02:10;;;;;;;10.40;2.22;;;5.80;99.90;;;;;;4169036;28;20040;-66
2021/04/06 09:04:17;;;;;;;9.05;1.88;;;5.80;99.90;;;;;;4169294;28;20033;-66
2021/04/06 09:06:18;;;;;;;7.47;1.58;;;5.80;99.90;;;;;;4164535;28;20029;-66
2021/04/06 09:08:25;;;;;;;7.78;1.80;;;5.80;99.90;;;;;;4163581;28;20032;-66
2021/04/06 09:10:37;;;;;;;9.90;2.22;;;5.80;99.90;;;;;;4161904;28;20043;-66
2021/04/06 09:12:41;;;;;;;7.13;1.88;;;6.00;99.90;;;;;;4161754;28;20181;-66
2021/04/06 09:14:42;;;;;;;8.50;1.50;;;6.00;99.90;;;;;;4163701;28;20088;-66
2021/04/06 09:16:43;;;;;;;9.63;2.30;;;6.10;99.90;;;;;;4170197;28;20040;-66
2021/04/06 09:18:45;;;;;;;9.68;1.85;;;6.30;99.90;;;;;;4173716;28;20564;-66
2021/04/06 09:20:46;;;;;;;4.57;1.73;;;6.30;99.90;;;;;;4160020;28;20840;-66
2021/04/06 09:22:50;;;;;;;4.30;1.58;;;6.20;99.90;;;;;;4159978;28;20061;-66
2021/04/06 09:24:50;;;;;;;6.85;1.42;;;6.10;99.90;;;;;;4159911;28;20107;-67
2021/04/06 09:26:53;;;;;;;3.85;1.40;;;6.00;99.90;;;;;;4162928;28;20030;-67
2021/04/06 09:29:13;;;;;;;10.93;1.73;;;5.90;99.90;;;;;;4160748;28;20092;-67
2021/04/06 09:31:14;;;;;;;5.22;1.45;;;5.90;99.90;;;;;;4175432;28;20037;-67
2021/04/06 09:33:17;;;;;;;7.35;1.73;;;5.80;99.90;;;;;;4163367;28;20033;-67
2021/04/06 09:35:18;;;;;;;5.82;1.70;;;5.70;99.90;;;;;;4168573;28;20029;-67
2021/04/06 09:37:27;;;;;;;7.75;2.20;;;5.70;99.90;;;;;;4166204;28;20057;-67
2021/04/06 09:39:29;;;;;;;6.57;1.80;;;5.80;99.90;;;;;;4159463;28;20089;-67
2021/04/06 09:41:33;;;;;;;4.33;1.70;;;5.90;99.90;;;;;;4190994;28;20040;-68
2021/04/06 09:43:34;;;;;;;9.45;3.08;;;6.00;99.90;;;;;;4167425;28;20057;-68
2021/04/06 09:45:35;;;;;;;7.28;2.25;;;6.00;99.90;;;;;;4163375;28;20037;-68
2021/04/06 09:47:37;;;;;;;8.50;2.60;;;6.10;99.90;;;;;;4165926;28;20034;-68
2021/04/06 09:49:58;;;;;;;4.38;1.60;;;6.20;99.90;;;;;;4170949;28;20033;-68
2021/04/06 09:52:03;;;;;;;5.88;2.20;;;6.30;99.90;;;;;;4163076;28;20049;-67
2021/04/06 09:54:05;;;;;;;2.70;1.17;;;6.30;99.90;;;;;;4170237;28;20033;-68
2021/04/06 09:56:06;;;;;;;2.03;1.00;;;6.50;99.90;;;;;;4176449;28;20486;-68
2021/04/06 09:58:07;;;;;;;3.45;1.20;;;6.60;99.90;;;;;;4170815;28;20039;-67
2021/04/06 10:00:14;;;;;;;4.97;1.40;;;6.70;99.90;;;;;;4177979;28;20064;-68
2021/04/06 10:02:18;;;;;;;7.07;1.85;;;6.80;99.90;;;;;;4166577;28;20040;-67
2021/04/06 10:04:39;;;;;;;4.55;1.60;;;6.90;99.90;;;;;;4164646;28;20159;-68
2021/04/06 10:06:42;;;;;;;4.53;1.50;;;7.00;99.90;;;;;;4165307;28;20041;-68
2021/04/06 10:08:42;;;;;;;4.93;1.35;;;7.10;99.90;;;;;;4167147;28;20636;-68
2021/04/06 10:10:48;;;;;;;6.35;1.45;;;7.20;99.90;;;;;;4169382;28;20037;-67
2021/04/06 10:12:51;;;;;;;6.78;1.50;;;7.20;99.90;;;;;;4180399;28;20037;-68
2021/04/06 10:14:52;;;;;;;3.13;1.20;;;7.30;99.90;;;;;;4173387;28;20029;-68
2021/04/06 10:17:00;;;;;;;5.45;1.55;;;7.30;99.90;;;;;;4174869;28;20029;-67
2021/04/06 10:19:18;;;;;;;8.07;2.20;;;7.20;99.90;;;;;;4180500;28;20040;-67
2021/04/06 10:21:26;;;;;;;10.48;1.98;;;7.00;99.90;;;;;;4180349;28;20128;-67
2021/04/06 10:23:33;;;;;;;3.67;1.63;;;6.90;99.90;;;;;;4163123;28;20033;-68
2021/04/06 10:25:37;;;;;;;5.45;1.60;;;6.80;99.90;;;;;;4164112;28;20049;-68
2021/04/06 10:28:06;;;;;;;7.65;1.58;;;6.80;99.90;;;;;;4190699;28;20081;-68
2021/04/06 10:30:13;;;;;;;4.05;1.30;;;7.00;99.90;;;;;;4163253;28;20034;-68
2021/04/06 10:32:26;;;;;;;4.50;1.58;;;7.00;99.90;;;;;;4165837;28;20572;-68
2021/04/06 10:34:28;;;;;;;5.78;1.20;;;7.10;99.90;;;;;;4168507;28;20052;-68
2021/04/06 10:36:29;;;;;;;4.32;1.50;;;7.20;99.90;;;;;;4170992;28;20087;-68
2021/04/06 10:38:35;;;;;;;6.25;1.73;;;7.30;99.90;;;;;;4173776;28;20087;-68
2021/04/06 10:40:40;;;;;;;5.07;1.63;;;7.30;99.90;;;;;;4174506;28;20094;-68
2021/04/06 10:42:41;;;;;;;7.05;1.80;;;7.10;99.90;;;;;;4161085;28;20037;-68
2021/04/06 10:44:44;;;;;;;4.55;1.40;;;7.10;99.90;;;;;;4160970;28;20053;-68
2021/04/06 10:46:45;;;;;;;6.22;1.30;;;7.20;99.90;;;;;;4164439;28;20033;-68
2021/04/06 10:48:49;;;;;;;6.43;1.85;;;7.20;99.90;;;;;;4166218;28;20509;-68
2021/04/06 10:50:57;;;;;;;3.75;1.38;;;7.30;99.90;;;;;;4164411;28;20037;-68
2021/04/06 10:52:57;;;;;;;7.30;1.55;;;7.40;99.90;;;;;;4178443;28;20032;-68
2021/04/06 10:54:59;;;;;;;7.95;1.58;;;7.20;99.90;;;;;;4172719;28;20033;-68
2021/04/06 10:57:00;;;;;;;6.57;2.28;;;7.20;99.90;;;;;;4173413;28;20079;-68